Time;durP1;ratioP1;P1;durP2;ratioP2;P2;SDS_P1;SDS_P2;PMS_P1;PMS_P2;Temp;Humidity;BMP_temperature;BMP_pressure;BME280_temperature;BME280_humidity;BME280_pressure;Samples;Min_cycle;Max_cycle;Signal;HPM_P1;HPM_P2
2022/05/31 00:01:36;;;;;;;7.30;3.10;;;20.30;56.40;;;;;;4991934;28;20092;-75
2022/05/31 00:04:02;;;;;;;12.00;3.65;;;20.30;56.50;;;;;;4990338;28;20030;-75
2022/05/31 00:06:28;;;;;;;7.63;3.55;;;20.30;56.60;;;;;;4990117;28;20023;-76
2022/05/31 00:08:54;;;;;;;9.73;3.83;;;20.30;56.70;;;;;;4990174;28;20034;-75
2022/05/31 00:11:20;;;;;;;10.45;3.92;;;20.30;56.70;;;;;;4991481;28;20467;-75
2022/05/31 00:13:45;;;;;;;10.15;4.07;;;20.30;56.70;;;;;;4990736;28;20026;-75
2022/05/31 00:16:11;;;;;;;12.43;4.10;;;20.30;56.70;;;;;;4989539;28;20073;-75
2022/05/31 00:18:37;;;;;;;11.23;4.68;;;20.40;56.70;;;;;;4990133;28;20046;-75
2022/05/31 00:21:04;;;;;;;12.45;4.18;;;20.40;56.70;;;;;;4989329;28;20033;-75
2022/05/31 00:23:30;;;;;;;14.88;4.25;;;20.40;56.80;;;;;;4991451;28;20026;-75
2022/05/31 00:25:55;;;;;;;14.82;4.55;;;20.40;56.90;;;;;;4991341;28;20042;-75
2022/05/31 00:28:21;;;;;;;13.02;4.60;;;20.40;56.90;;;;;;4991176;28;20434;-75
2022/05/31 00:30:47;;;;;;;10.35;4.78;;;20.40;56.90;;;;;;4989739;28;20041;-75
2022/05/31 00:33:13;;;;;;;10.85;4.72;;;20.40;57.00;;;;;;5003470;28;20076;-74
2022/05/31 00:35:43;;;;;;;11.70;4.93;;;20.30;56.90;;;;;;4989922;28;20122;-74
2022/05/31 00:38:09;;;;;;;12.75;4.45;;;20.30;57.00;;;;;;4997039;28;20027;-75
2022/05/31 00:40:37;;;;;;;12.38;4.93;;;20.30;57.00;;;;;;5005789;28;20553;-74
2022/05/31 00:43:08;;;;;;;14.27;5.05;;;20.40;57.10;;;;;;4988362;28;20034;-74
2022/05/31 00:45:44;;;;;;;12.00;5.25;;;20.30;57.10;;;;;;4992889;28;20023;-75
2022/05/31 00:48:18;;;;;;;13.13;5.57;;;20.40;57.70;;;;;;4993988;28;20592;-74
2022/05/31 00:51:13;;;;;;;17.17;4.93;;;20.40;57.20;;;;;;4995695;28;20030;-75
2022/05/31 00:53:47;;;;;;;12.43;4.57;;;20.30;57.10;;;;;;4991857;28;20042;-75
2022/05/31 00:56:18;;;;;;;13.02;4.72;;;20.30;57.20;;;;;;4993756;28;20026;-75
2022/05/31 00:58:50;;;;;;;13.27;5.65;;;20.30;57.20;;;;;;4992977;28;20038;-75
2022/05/31 01:01:17;;;;;;;16.67;5.70;;;20.40;57.30;;;;;;4992408;28;20426;-75
2022/05/31 01:03:44;;;;;;;12.88;5.18;;;20.30;57.30;;;;;;4976808;28;20042;-75
2022/05/31 01:06:11;;;;;;;17.45;6.53;;;20.30;57.20;;;;;;4993636;28;20026;-75
2022/05/31 01:08:45;;;;;;;13.88;5.40;;;20.40;57.20;;;;;;5008010;28;20041;-75
2022/05/31 01:11:44;;;;;;;17.95;6.45;;;20.40;57.20;;;;;;4978346;28;20035;-75
2022/05/31 01:14:28;;;;;;;16.98;6.50;;;20.40;57.30;;;;;;4994322;28;20494;-75
2022/05/31 01:17:18;;;;;;;18.45;6.88;;;20.50;57.40;;;;;;4994264;28;20040;-76
2022/05/31 01:20:22;;;;;;;16.58;6.25;;;20.50;57.40;;;;;;4992436;28;20040;-75
2022/05/31 01:23:01;;;;;;;15.63;6.53;;;20.50;57.40;;;;;;4992090;28;20666;-75
2022/05/31 01:25:53;;;;;;;17.50;6.43;;;20.50;57.40;;;;;;4992483;28;20029;-75
2022/05/31 01:28:51;;;;;;;18.15;7.45;;;20.50;57.30;;;;;;4991849;28;20062;-75
2022/05/31 01:31:41;;;;;;;17.77;6.70;;;20.50;57.40;;;;;;4993360;28;20026;-75
2022/05/31 01:34:22;;;;;;;15.18;6.60;;;20.50;57.40;;;;;;5001298;28;20022;-75
2022/05/31 01:36:54;;;;;;;18.85;6.35;;;20.50;57.20;;;;;;5005001;28;20050;-75
2022/05/31 01:39:33;;;;;;;19.17;7.38;;;20.40;57.30;;;;;;5002182;28;20029;-75
2022/05/31 01:42:03;;;;;;;17.50;6.75;;;20.50;57.40;;;;;;5006991;28;20487;-75
2022/05/31 01:44:30;;;;;;;;;;;20.40;57.50;;;;;;4992280;28;20463;-76
2022/05/31 01:46:58;;;;;;;15.90;6.65;;;20.40;57.50;;;;;;4976804;28;19921;-75
2022/05/31 01:49:30;;;;;;;14.77;6.25;;;20.40;57.40;;;;;;5006762;28;20023;-75
2022/05/31 01:51:58;;;;;;;17.70;6.63;;;20.40;57.50;;;;;;4991965;28;20038;-74
2022/05/31 01:54:24;;;;;;;18.52;7.00;;;20.40;57.70;;;;;;4993196;28;20014;-75
2022/05/31 01:56:55;;;;;;;17.80;6.32;;;20.40;57.60;;;;;;4975261;28;20034;-75
2022/05/31 01:59:22;;;;;;;14.90;6.30;;;20.40;57.70;;;;;;4991850;28;20026;-75
2022/05/31 02:01:48;;;;;;;14.98;6.20;;;20.40;57.60;;;;;;5008073;28;20501;-75
2022/05/31 02:04:16;;;;;;;14.50;5.90;;;20.40;57.70;;;;;;4989939;28;20032;-75
2022/05/31 02:06:42;;;;;;;18.58;6.47;;;20.40;57.60;;;;;;5006415;28;20706;-75
2022/05/31 02:09:11;;;;;;;16.67;6.22;;;20.40;57.70;;;;;;4988438;28;20023;-75
2022/05/31 02:11:39;;;;;;;13.45;5.75;;;20.40;57.70;;;;;;4992304;28;20030;-75
2022/05/31 02:14:24;;;;;;;16.05;6.20;;;20.40;57.70;;;;;;5006683;28;20025;-75
2022/05/31 02:16:50;;;;;;;18.30;6.70;;;20.40;57.70;;;;;;4988967;28;20027;-74
2022/05/31 02:19:35;;;;;;;15.10;5.72;;;20.40;57.70;;;;;;4992263;28;20227;-75
2022/05/31 02:22:10;;;;;;;15.18;5.63;;;20.40;57.70;;;;;;4991604;28;20076;-75
2022/05/31 02:24:36;;;;;;;15.40;6.20;;;20.40;57.70;;;;;;4992151;28;20030;-75
2022/05/31 02:27:02;;;;;;;16.48;5.88;;;20.40;57.60;;;;;;4991261;28;20026;-75
2022/05/31 02:29:31;;;;;;;13.10;5.72;;;20.40;57.60;;;;;;4966988;28;20510;-75
2022/05/31 02:31:59;;;;;;;12.07;4.97;;;20.40;57.60;;;;;;4990764;28;20487;-75
2022/05/31 02:34:29;;;;;;;13.20;5.93;;;20.40;57.60;;;;;;4975251;28;20042;-75
2022/05/31 02:36:55;;;;;;;14.35;5.45;;;20.40;57.50;;;;;;4990883;28;20084;-75
2022/05/31 02:39:21;;;;;;;14.02;5.88;;;20.40;57.50;;;;;;4987778;28;20037;-75
2022/05/31 02:41:50;;;;;;;14.85;4.97;;;20.40;57.50;;;;;;4982292;28;20038;-74
2022/05/31 02:44:18;;;;;;;14.50;5.75;;;20.40;57.60;;;;;;4989630;28;20030;-75
2022/05/31 02:46:44;;;;;;;16.30;5.32;;;20.40;57.50;;;;;;4990542;28;20069;-75
2022/05/31 02:49:10;;;;;;;14.77;5.70;;;20.40;57.60;;;;;;4990043;28;20057;-75
2022/05/31 02:51:40;;;;;;;12.98;5.32;;;20.40;57.60;;;;;;4991808;28;20060;-75
2022/05/31 02:54:07;;;;;;;12.32;5.25;;;20.40;57.60;;;;;;4990471;28;20027;-75
2022/05/31 02:56:59;;;;;;;13.60;5.72;;;20.40;57.60;;;;;;4972926;28;20046;-75
2022/05/31 02:59:47;;;;;;;11.48;4.90;;;20.40;57.70;;;;;;4991212;28;20046;-75
2022/05/31 03:02:48;;;;;;;13.40;5.32;;;20.30;57.60;;;;;;4988662;28;20027;-75
2022/05/31 03:05:32;;;;;;;14.30;5.32;;;20.30;57.50;;;;;;4992107;28;20379;-75
2022/05/31 03:08:18;;;;;;;15.00;5.03;;;20.30;57.60;;;;;;4990112;28;20038;-75
2022/05/31 03:11:04;;;;;;;10.10;5.00;;;20.30;57.60;;;;;;4989767;28;20053;-75
2022/05/31 03:13:32;;;;;;;14.35;5.20;;;20.30;57.50;;;;;;4989056;28;20030;-75
2022/05/31 03:16:02;;;;;;;13.43;5.30;;;20.30;58.20;;;;;;4990697;28;20041;-75
2022/05/31 03:18:34;;;;;;;13.75;5.15;;;20.40;57.70;;;;;;4989976;28;20034;-75
2022/05/31 03:21:07;;;;;;;12.13;4.75;;;20.30;57.70;;;;;;4975078;28;20089;-75
2022/05/31 03:23:39;;;;;;;11.45;4.70;;;20.30;57.70;;;;;;4989144;28;20030;-75
2022/05/31 03:26:07;;;;;;;10.85;4.90;;;20.30;57.70;;;;;;4990847;28;20042;-75
2022/05/31 03:28:34;;;;;;;12.30;5.47;;;20.30;57.60;;;;;;4990040;28;20038;-75
2022/05/31 03:31:04;;;;;;;11.13;4.78;;;20.30;57.70;;;;;;4989090;28;20022;-75
2022/05/31 03:33:31;;;;;;;11.48;5.05;;;20.30;57.60;;;;;;4992205;28;20033;-75
2022/05/31 03:35:57;;;;;;;13.30;4.57;;;20.30;57.60;;;;;;4991450;28;20066;-75
2022/05/31 03:38:28;;;;;;;11.43;4.68;;;20.30;57.60;;;;;;5005031;28;20026;-75
2022/05/31 03:40:57;;;;;;;11.20;4.68;;;20.30;57.50;;;;;;4990320;28;20399;-76
2022/05/31 03:43:58;;;;;;;10.65;4.70;;;20.30;57.50;;;;;;4988751;28;20041;-75
2022/05/31 03:46:50;;;;;;;10.38;4.07;;;20.40;57.50;;;;;;4990882;28;20510;-75
2022/05/31 03:49:27;;;;;;;9.30;4.35;;;20.30;57.50;;;;;;5006486;28;20030;-74
2022/05/31 03:51:59;;;;;;;10.05;4.57;;;20.30;57.50;;;;;;5005842;28;20027;-75
2022/05/31 03:54:28;;;;;;;10.02;4.47;;;20.30;57.50;;;;;;5006661;28;20505;-75
2022/05/31 03:57:20;;;;;;;10.75;4.43;;;20.30;57.60;;;;;;4980827;28;20034;-75
2022/05/31 03:59:53;;;;;;;11.18;4.57;;;20.30;57.60;;;;;;4990374;28;20054;-74
2022/05/31 04:02:26;;;;;;;10.85;4.35;;;20.30;57.50;;;;;;5005229;28;20034;-75
2022/05/31 04:04:52;;;;;;;10.07;4.40;;;20.30;57.50;;;;;;4989077;28;20395;-74
2022/05/31 04:07:19;;;;;;;9.60;4.18;;;20.30;57.60;;;;;;4990055;28;20035;-75
2022/05/31 04:09:45;;;;;;;9.65;4.32;;;20.30;57.60;;;;;;5005990;28;20053;-75
2022/05/31 04:12:12;;;;;;;9.77;4.32;;;20.30;57.50;;;;;;5006192;28;20030;-75
2022/05/31 04:15:09;;;;;;;11.55;4.88;;;20.30;57.60;;;;;;4991496;28;20546;-75
2022/05/31 04:17:35;;;;;;;10.90;4.07;;;20.30;57.70;;;;;;5004862;28;20114;-76
2022/05/31 04:20:01;;;;;;;12.55;4.65;;;20.30;57.60;;;;;;4989083;28;20117;-75
2022/05/31 04:22:26;;;;;;;8.77;4.18;;;20.30;57.70;;;;;;4989974;28;20030;-75
2022/05/31 04:25:01;;;;;;;10.02;4.38;;;20.30;57.60;;;;;;4990472;28;20035;-74
2022/05/31 04:27:59;;;;;;;10.43;3.83;;;20.30;57.60;;;;;;4991153;28;20030;-75
2022/05/31 04:30:44;;;;;;;8.52;4.07;;;20.30;57.60;;;;;;4990041;28;20027;-75
2022/05/31 04:33:28;;;;;;;10.40;4.25;;;20.30;57.60;;;;;;4989017;28;20022;-74
2022/05/31 04:36:02;;;;;;;10.15;3.80;;;20.30;57.60;;;;;;5005708;28;20015;-75
2022/05/31 04:38:28;;;;;;;10.85;4.38;;;20.30;57.60;;;;;;4987844;28;20027;-76
2022/05/31 04:40:58;;;;;;;11.23;4.50;;;20.30;57.60;;;;;;4989277;28;20074;-75
2022/05/31 04:44:00;;;;;;;9.65;3.97;;;20.30;57.60;;;;;;4982789;28;20419;-75
2022/05/31 04:46:35;;;;;;;8.32;3.72;;;20.30;57.60;;;;;;4987947;28;20491;-75
2022/05/31 04:49:21;;;;;;;9.88;4.18;;;20.30;57.60;;;;;;4983538;28;20626;-75
2022/05/31 04:51:47;;;;;;;9.23;3.80;;;20.30;57.50;;;;;;4989326;28;20034;-75
2022/05/31 04:54:19;;;;;;;8.20;3.67;;;20.30;57.60;;;;;;4987841;28;20093;-75
2022/05/31 04:57:00;;;;;;;9.27;4.22;;;20.30;57.70;;;;;;4988808;28;20395;-75
2022/05/31 04:59:26;;;;;;;7.63;3.90;;;20.30;57.60;;;;;;4987959;28;20631;-75
2022/05/31 05:01:52;;;;;;;8.52;3.95;;;20.30;57.50;;;;;;4989504;28;20027;-75
2022/05/31 05:04:31;;;;;;;9.25;4.15;;;20.30;57.60;;;;;;5005812;28;20550;-75
2022/05/31 05:06:58;;;;;;;9.07;4.20;;;20.30;57.50;;;;;;4989334;28;20034;-75
2022/05/31 05:09:24;;;;;;;9.93;4.45;;;20.30;57.50;;;;;;4988560;28;20494;-75
2022/05/31 05:12:12;;;;;;;10.15;4.10;;;20.30;57.50;;;;;;4989477;28;20030;-75
2022/05/31 05:14:43;;;;;;;9.10;4.00;;;20.30;57.50;;;;;;4989484;28;20026;-75
2022/05/31 05:17:13;;;;;;;9.68;4.05;;;20.30;57.50;;;;;;5005855;28;20026;-76
2022/05/31 05:19:43;;;;;;;10.02;4.05;;;20.30;57.60;;;;;;5003050;28;20037;-75
2022/05/31 05:22:09;;;;;;;8.57;4.22;;;20.30;57.60;;;;;;4989862;28;20035;-75
2022/05/31 05:24:36;;;;;;;8.73;4.13;;;20.30;57.60;;;;;;5005669;28;20306;-75
2022/05/31 05:27:27;;;;;;;10.90;4.40;;;20.30;57.60;;;;;;4996072;23;20046;-71
2022/05/31 05:33:13;;;;;;;8.82;3.90;;;20.30;57.60;;;;;;4991636;28;20023;-70
2022/05/31 05:35:50;;;;;;;7.15;3.85;;;20.30;57.70;;;;;;4977334;28;20053;-70
2022/05/31 05:38:16;;;;;;;7.30;3.67;;;20.30;57.60;;;;;;4992099;28;20031;-70
2022/05/31 05:41:00;;;;;;;8.15;3.97;;;20.30;57.60;;;;;;4993029;28;20030;-71
2022/05/31 05:43:52;;;;;;;9.25;3.92;;;20.30;57.80;;;;;;4991586;28;20121;-70
2022/05/31 05:46:23;;;;;;;10.27;3.67;;;20.30;57.60;;;;;;4976767;28;20404;-70
2022/05/31 05:48:49;;;;;;;8.43;3.53;;;20.30;57.50;;;;;;4989494;28;20039;-71
2022/05/31 05:51:25;;;;;;;6.70;3.72;;;20.30;57.40;;;;;;4990016;28;20031;-70
2022/05/31 05:54:09;;;;;;;8.80;3.70;;;20.30;57.40;;;;;;4992721;28;20122;-70
2022/05/31 05:56:53;;;;;;;7.47;3.72;;;20.30;57.50;;;;;;4994284;28;20054;-71
2022/05/31 05:59:38;;;;;;;9.75;3.72;;;20.30;57.30;;;;;;4993942;28;20018;-70
2022/05/31 06:02:29;;;;;;;8.93;3.88;;;20.30;57.40;;;;;;4995953;28;20381;-70
2022/05/31 06:05:32;;;;;;;6.60;3.35;;;20.30;57.40;;;;;;4992831;28;20041;-70
2022/05/31 06:08:01;;;;;;;8.63;3.88;;;20.30;57.40;;;;;;5000270;28;20535;-69
2022/05/31 06:10:34;;;;;;;7.85;3.70;;;20.30;57.50;;;;;;5001178;28;20022;-69
2022/05/31 06:13:16;;;;;;;8.90;3.92;;;20.30;57.40;;;;;;5001978;28;20050;-70
2022/05/31 06:15:50;;;;;;;9.52;4.38;;;20.30;57.50;;;;;;4977702;28;20031;-70
2022/05/31 06:18:28;;;;;;;8.93;4.03;;;20.30;57.40;;;;;;4976674;28;20030;-70
2022/05/31 06:21:00;;;;;;;7.70;3.25;;;20.30;57.30;;;;;;4991944;28;20026;-72
2022/05/31 06:23:26;;;;;;;10.35;3.00;;;20.30;56.70;;;;;;4992528;28;20026;-72
2022/05/31 06:25:56;;;;;;;10.93;3.50;;;20.20;56.70;;;;;;4993686;28;20038;-72
2022/05/31 06:28:32;;;;;;;7.63;3.28;;;20.20;57.00;;;;;;4992117;28;20108;-72
2022/05/31 06:30:57;;;;;;;8.68;3.20;;;20.20;57.50;;;;;;4983437;28;20563;-72
2022/05/31 06:33:23;;;;;;;8.73;3.40;;;20.20;57.60;;;;;;4992469;28;20038;-72
2022/05/31 06:35:50;;;;;;;14.43;3.60;;;20.20;57.90;;;;;;4990702;28;20054;-72
2022/05/31 06:38:17;;;;;;;10.82;4.13;;;20.20;57.70;;;;;;4993085;28;20148;-71
2022/05/31 06:40:44;;;;;;;17.90;10.10;;;20.20;57.20;;;;;;4974568;28;20093;-72
2022/05/31 06:43:38;;;;;;;12.75;5.85;;;20.20;55.90;;;;;;4984533;28;20034;-72
2022/05/31 06:46:42;;;;;;;11.25;4.70;;;20.10;53.40;;;;;;4984844;28;20038;-72
2022/05/31 06:49:30;;;;;;;8.38;3.88;;;20.10;53.10;;;;;;4988993;28;20048;-73
2022/05/31 06:58:16;;;;;;;12.05;3.70;;;20.10;52.30;;;;;;4986092;28;20034;-74
2022/05/31 07:00:47;;;;;;;8.40;3.38;;;20.20;54.00;;;;;;4985798;28;20035;-74
2022/05/31 07:03:14;;;;;;;6.88;2.80;;;20.20;55.00;;;;;;4984321;28;20038;-74
2022/05/31 07:05:41;;;;;;;7.40;2.95;;;20.30;54.30;;;;;;4972336;28;20034;-74
2022/05/31 07:08:09;;;;;;;7.93;2.70;;;20.20;53.50;;;;;;4981301;28;20101;-74
2022/05/31 07:10:54;;;;;;;13.52;3.10;;;20.20;53.20;;;;;;4989886;28;20087;-72
2022/05/31 07:13:39;;;;;;;9.02;2.80;;;20.20;52.60;;;;;;4990112;28;20766;-65
2022/05/31 07:16:34;;;;;;;12.35;5.95;;;20.20;52.80;;;;;;4988400;28;20057;-65
2022/05/31 07:19:08;;;;;;;9.90;4.80;;;20.30;52.70;;;;;;4987784;28;20411;-65
2022/05/31 07:21:41;;;;;;;8.77;3.63;;;20.30;53.10;;;;;;4989536;28;20026;-65
2022/05/31 07:24:07;;;;;;;7.90;3.10;;;20.20;52.10;;;;;;4989346;28;20026;-72
2022/05/31 07:26:35;;;;;;;6.00;2.78;;;20.20;52.00;;;;;;4973173;28;20062;-72
2022/05/31 07:29:02;;;;;;;9.00;3.00;;;20.20;51.90;;;;;;4972590;28;20066;-72
2022/05/31 07:31:28;;;;;;;5.05;2.53;;;20.20;51.40;;;;;;4989479;28;20390;-72
2022/05/31 07:34:02;;;;;;;6.15;2.47;;;20.20;51.00;;;;;;4988249;28;20411;-72
2022/05/31 07:36:28;;;;;;;7.00;2.22;;;20.10;50.70;;;;;;4988128;28;20026;-72
2022/05/31 07:39:05;;;;;;;6.32;2.65;;;20.10;50.30;;;;;;4974376;28;20049;-72
2022/05/31 07:41:32;;;;;;;5.45;2.05;;;20.10;50.20;;;;;;4989204;28;20149;-72
2022/05/31 07:44:00;;;;;;;4.78;2.17;;;20.10;49.40;;;;;;4973004;28;20074;-72
2022/05/31 07:46:27;;;;;;;5.15;1.80;;;20.10;50.00;;;;;;4988821;28;20042;-72
2022/05/31 07:48:57;;;;;;;3.90;2.20;;;20.10;49.90;;;;;;4955874;28;20337;-72
2022/05/31 07:51:47;;;;;;;4.80;2.00;;;20.10;50.60;;;;;;4986138;28;20042;-72
2022/05/31 07:54:31;;;;;;;5.25;2.10;;;20.10;49.20;;;;;;4987008;28;20018;-72
2022/05/31 08:00:55;;;;;;;9.70;2.00;;;20.10;49.70;;;;;;4989429;28;20146;-72
2022/05/31 08:03:21;;;;;;;7.00;1.90;;;20.10;48.50;;;;;;4986013;28;20535;-72
2022/05/31 08:05:46;;;;;;;3.63;1.80;;;20.10;49.10;;;;;;4989009;28;20106;-72
2022/05/31 08:08:12;;;;;;;9.48;2.17;;;20.10;49.80;;;;;;4988094;28;20034;-72
2022/05/31 08:10:39;;;;;;;4.25;2.00;;;20.20;50.00;;;;;;4989452;28;20031;-72
2022/05/31 08:13:04;;;;;;;5.03;1.90;;;20.20;50.00;;;;;;4988668;28;20030;-72
2022/05/31 08:15:30;;;;;;;9.40;2.08;;;20.30;50.30;;;;;;4987197;28;20105;-71
2022/05/31 08:17:56;;;;;;;6.78;1.90;;;20.30;50.80;;;;;;4987543;28;20105;-70
2022/05/31 08:20:22;;;;;;;5.20;1.80;;;20.30;50.30;;;;;;4987303;28;20037;-71
2022/05/31 08:22:48;;;;;;;6.38;1.85;;;20.30;50.90;;;;;;4988637;28;20057;-71
2022/05/31 08:25:14;;;;;;;7.03;2.20;;;20.30;51.20;;;;;;4988329;28;20387;-71
2022/05/31 08:27:40;;;;;;;4.53;1.98;;;20.30;51.10;;;;;;4988324;28;20121;-71
2022/05/31 08:30:07;;;;;;;6.82;2.03;;;20.40;51.50;;;;;;4987451;28;20118;-73
2022/05/31 08:32:34;;;;;;;7.63;2.15;;;20.30;51.50;;;;;;4971387;28;20313;-72
2022/05/31 08:35:00;;;;;;;7.13;2.10;;;20.40;51.90;;;;;;4989289;28;20034;-71
2022/05/31 08:37:27;;;;;;;6.90;2.20;;;20.40;52.00;;;;;;4988056;28;20383;-71
2022/05/31 08:39:52;;;;;;;7.80;2.20;;;20.40;52.00;;;;;;4989684;28;20038;-72
2022/05/31 08:42:48;;;;;;;9.15;2.50;;;20.40;52.40;;;;;;4989451;28;20031;-72
2022/05/31 08:45:53;;;;;;;7.15;2.30;;;20.40;52.90;;;;;;4988371;28;20383;-72
2022/05/31 08:48:39;;;;;;;8.50;2.67;;;20.50;54.20;;;;;;4969549;28;20039;-72
2022/05/31 08:57:01;;;;;;;13.48;2.85;;;20.50;55.80;;;;;;4969614;28;20144;-72
2022/05/31 08:59:51;;;;;;;11.48;3.13;;;20.60;55.20;;;;;;4990294;28;20114;-69
2022/05/31 09:02:22;;;;;;;15.13;3.55;;;20.60;55.90;;;;;;4991191;28;20390;-68
2022/05/31 09:05:08;;;;;;;12.40;3.08;;;20.60;56.20;;;;;;4974105;28;20062;-72
2022/05/31 09:07:42;;;;;;;12.52;2.78;;;20.60;56.30;;;;;;4993583;28;20022;-72
2022/05/31 09:10:29;;;;;;;10.52;4.15;;;20.50;54.20;;;;;;4993678;28;20022;-72
2022/05/31 09:13:19;;;;;;;13.10;3.83;;;20.50;53.10;;;;;;4992639;28;20447;-72
2022/05/31 09:15:52;;;;;;;15.23;3.97;;;20.50;54.70;;;;;;4990008;28;20083;-71
2022/05/31 09:18:42;;;;;;;11.20;3.65;;;20.50;55.10;;;;;;4992293;28;20038;-69
2022/05/31 09:21:26;;;;;;;11.80;4.38;;;20.50;53.30;;;;;;4990041;28;20046;-70
2022/05/31 09:23:55;;;;;;;10.48;4.32;;;20.50;53.90;;;;;;4990268;28;20026;-70
2022/05/31 09:26:35;;;;;;;14.80;3.85;;;20.50;54.10;;;;;;4992562;28;20026;-70
2022/05/31 09:29:21;;;;;;;13.52;3.83;;;20.60;53.60;;;;;;4993167;28;20440;-70
2022/05/31 09:32:13;;;;;;;11.60;3.55;;;20.60;54.10;;;;;;4986187;28;20030;-70
2022/05/31 09:34:57;;;;;;;11.88;3.72;;;20.60;54.10;;;;;;4990592;28;20502;-70
2022/05/31 09:37:43;;;;;;;13.43;3.63;;;20.60;54.20;;;;;;4974901;28;20030;-69
2022/05/31 09:40:30;;;;;;;9.43;4.00;;;20.60;54.00;;;;;;4993221;28;20026;-70
2022/05/31 09:43:08;;;;;;;10.10;3.50;;;20.60;54.20;;;;;;4990989;28;20082;-70
2022/05/31 09:45:38;;;;;;;8.50;3.20;;;20.60;54.20;;;;;;4992603;28;20026;-70
2022/05/31 09:48:05;;;;;;;9.02;3.70;;;20.60;54.30;;;;;;4980528;28;20027;-69
2022/05/31 09:50:31;;;;;;;16.13;3.92;;;20.50;54.80;;;;;;4994426;28;20031;-71
2022/05/31 09:52:57;;;;;;;8.90;3.60;;;20.50;54.30;;;;;;4992955;28;20450;-71
2022/05/31 09:58:42;;;;;;;7.30;3.42;;;20.60;54.30;;;;;;4992018;28;20049;-70
2022/05/31 10:01:43;;;;;;;8.43;3.85;;;20.60;54.30;;;;;;4979011;28;20069;-69
2022/05/31 10:04:28;;;;;;;16.38;4.03;;;20.70;54.10;;;;;;4986942;28;20113;-69
2022/05/31 10:07:03;;;;;;;12.45;3.55;;;20.60;54.30;;;;;;4988068;28;20407;-69
2022/05/31 10:09:41;;;;;;;6.72;3.15;;;20.60;54.50;;;;;;4992047;28;20033;-69
2022/05/31 10:12:16;;;;;;;11.40;3.30;;;20.60;54.30;;;;;;4971946;28;20030;-70
2022/05/31 10:14:47;;;;;;;9.50;3.58;;;20.60;54.70;;;;;;4991382;28;20026;-70
2022/05/31 10:17:34;;;;;;;10.00;3.30;;;20.70;54.70;;;;;;4989377;28;20034;-69
2022/05/31 10:20:25;;;;;;;7.50;3.35;;;20.70;54.50;;;;;;4988667;28;20030;-69
2022/05/31 10:23:13;;;;;;;6.95;3.05;;;20.70;54.50;;;;;;4988530;28;20093;-69
2022/05/31 10:26:32;;;;;;;10.05;3.75;;;20.70;54.40;;;;;;4988356;28;20379;-71
2022/05/31 10:29:21;;;;;;;9.07;3.50;;;20.60;54.40;;;;;;4972186;28;20034;-69
2022/05/31 10:32:34;;;;;;;16.65;3.15;;;20.60;53.80;;;;;;4982429;28;20130;-70
2022/05/31 10:35:14;;;;;;;10.55;3.05;;;20.50;53.60;;;;;;4988536;28;20142;-70
2022/05/31 10:38:01;;;;;;;15.20;2.92;;;20.50;53.50;;;;;;4990324;28;20027;-69
2022/05/31 10:40:45;;;;;;;11.48;3.22;;;20.50;52.50;;;;;;4987952;28;20042;-69
2022/05/31 10:43:32;;;;;;;10.30;2.90;;;20.50;52.60;;;;;;4989316;28;20144;-69
2022/05/31 10:46:07;;;;;;;16.50;3.35;;;20.50;52.80;;;;;;4989112;28;20096;-68
2022/05/31 10:48:39;;;;;;;10.68;3.05;;;20.50;53.20;;;;;;4988084;28;20113;-68
2022/05/31 10:51:17;;;;;;;10.98;3.28;;;20.50;53.10;;;;;;4984118;28;20026;-68
2022/05/31 10:54:05;;;;;;;17.75;3.13;;;20.50;53.60;;;;;;4990416;28;20022;-69
2022/05/31 10:56:41;;;;;;;14.38;3.63;;;20.50;53.40;;;;;;4992185;28;20423;-69
2022/05/31 10:59:16;;;;;;;14.90;4.07;;;20.50;53.60;;;;;;4998219;28;20109;-70
2022/05/31 11:02:08;;;;;;;12.32;3.72;;;20.50;53.60;;;;;;4992420;28;20096;-74
2022/05/31 11:04:54;;;;;;;10.43;3.70;;;20.50;53.30;;;;;;4988277;28;20026;-73
2022/05/31 11:07:33;;;;;;;11.60;4.13;;;20.50;53.10;;;;;;4990917;28;20478;-74
2022/05/31 11:13:15;;;;;;;11.57;5.05;;;20.60;52.50;;;;;;4986524;28;20030;-74
2022/05/31 11:15:56;;;;;;;12.20;4.90;;;20.60;52.40;;;;;;4988751;28;20033;-74
2022/05/31 11:18:33;;;;;;;14.63;3.83;;;20.50;52.70;;;;;;4982778;28;20054;-74
2022/05/31 11:21:24;;;;;;;9.27;3.67;;;20.50;52.10;;;;;;4972304;28;20038;-74
2022/05/31 11:24:17;;;;;;;12.05;3.40;;;20.50;52.70;;;;;;4988433;28;20098;-74
2022/05/31 11:27:01;;;;;;;12.00;2.80;;;20.50;48.80;;;;;;4996526;23;20059;-71
2022/05/31 11:29:35;;;;;;;11.07;3.03;;;20.50;49.30;;;;;;4980943;28;20042;-72
2022/05/31 11:32:30;;;;;;;10.55;2.97;;;20.50;50.10;;;;;;4971924;28;20046;-71
2022/05/31 11:35:37;;;;;;;9.32;2.78;;;20.40;49.10;;;;;;4972048;28;20019;-72
2022/05/31 11:38:08;;;;;;;11.85;2.40;;;20.40;47.60;;;;;;4990487;28;20058;-71
2022/05/31 11:40:54;;;;;;;6.95;2.33;;;20.40;48.70;;;;;;4966564;28;20110;-71
2022/05/31 11:43:42;;;;;;;12.40;2.50;;;20.30;49.30;;;;;;4970780;28;20431;-71
2022/05/31 11:46:43;;;;;;;10.18;2.60;;;20.40;48.60;;;;;;4969984;28;20387;-71
2022/05/31 11:49:35;;;;;;;10.50;2.58;;;20.40;50.30;;;;;;4967241;28;20436;-71
2022/05/31 11:52:32;;;;;;;7.18;2.50;;;20.50;51.10;;;;;;4969780;28;20031;-71
2022/05/31 11:55:28;;;;;;;8.02;2.63;;;20.50;52.40;;;;;;4978836;28;20458;-70
2022/05/31 11:58:17;;;;;;;16.25;2.65;;;20.50;53.30;;;;;;4967254;28;20030;-72
2022/05/31 12:01:01;;;;;;;8.73;2.30;;;20.50;54.20;;;;;;4967595;28;20101;-70
2022/05/31 12:03:38;;;;;;;6.13;2.35;;;20.40;51.70;;;;;;4965270;28;20034;-70
2022/05/31 12:06:19;;;;;;;8.35;2.33;;;20.40;51.60;;;;;;4968015;28;20496;-71
2022/05/31 12:08:51;;;;;;;8.23;2.35;;;20.50;51.00;;;;;;4968146;28;20089;-71
2022/05/31 12:11:24;;;;;;;10.57;2.45;;;20.50;54.50;;;;;;4981708;28;20391;-71
2022/05/31 12:13:51;;;;;;;12.48;2.53;;;20.50;51.10;;;;;;4974547;28;20023;-71
2022/05/31 12:16:17;;;;;;;7.45;2.55;;;20.50;53.70;;;;;;4965755;28;20025;-71
2022/05/31 12:18:50;;;;;;;16.00;5.72;;;20.40;55.10;;;;;;4972201;28;20042;-71
2022/05/31 12:21:34;;;;;;;15.10;8.55;;;20.40;55.50;;;;;;4969370;28;20038;-72
2022/05/31 12:24:14;;;;;;;19.27;6.75;;;20.40;50.70;;;;;;4949623;28;20034;-73
2022/05/31 12:27:00;;;;;;;13.85;6.60;;;20.50;51.50;;;;;;4965952;28;20026;-72
2022/05/31 12:29:41;;;;;;;12.63;6.45;;;20.50;51.50;;;;;;4969837;28;20114;-72
2022/05/31 12:32:40;;;;;;;12.93;6.00;;;20.50;52.50;;;;;;4968094;28;20050;-72
2022/05/31 12:35:31;;;;;;;18.38;6.68;;;20.50;51.70;;;;;;4970332;28;20037;-72
2022/05/31 12:38:02;;;;;;;13.80;6.43;;;20.50;52.20;;;;;;4967672;28;20041;-72
2022/05/31 12:40:39;;;;;;;13.23;6.68;;;20.50;52.60;;;;;;4972030;28;20119;-72
2022/05/31 12:43:08;;;;;;;11.30;6.18;;;20.50;51.80;;;;;;4973018;28;20034;-72
2022/05/31 12:45:33;;;;;;;11.68;5.88;;;20.50;53.30;;;;;;4970500;28;20034;-72
2022/05/31 12:48:16;;;;;;;13.50;6.28;;;20.50;53.30;;;;;;4972459;28;20442;-72
2022/05/31 12:51:07;;;;;;;12.25;5.70;;;20.50;53.90;;;;;;4973343;28;20459;-72
2022/05/31 12:53:35;;;;;;;12.73;5.72;;;20.50;53.40;;;;;;4973309;28;20535;-72
2022/05/31 12:56:01;;;;;;;12.93;6.03;;;20.50;53.90;;;;;;4973797;28;20372;-72
2022/05/31 12:58:27;;;;;;;13.88;6.63;;;20.50;53.90;;;;;;4973758;28;20102;-72
2022/05/31 13:01:13;;;;;;;13.13;5.75;;;20.50;53.50;;;;;;4973616;28;20038;-72
2022/05/31 13:03:54;;;;;;;12.45;6.78;;;20.50;54.00;;;;;;4973963;28;20034;-72
2022/05/31 13:06:28;;;;;;;13.38;5.80;;;20.50;54.10;;;;;;4973633;28;20118;-72
2022/05/31 13:09:01;;;;;;;13.10;5.95;;;20.50;54.30;;;;;;4973251;28;20049;-72
2022/05/31 13:20:39;;;;;;;18.40;8.23;;;20.50;53.70;;;;;;4913731;29;20115;-73
2022/05/31 13:23:21;;;;;;;14.85;7.32;;;20.50;52.80;;;;;;4914975;29;20094;-72
2022/05/31 13:25:56;;;;;;;16.35;7.18;;;20.50;52.80;;;;;;4963007;28;20275;-74
2022/05/31 13:28:29;;;;;;;13.98;6.65;;;20.50;53.30;;;;;;4973324;28;20042;-74
2022/05/31 13:31:04;;;;;;;14.20;7.38;;;20.50;52.50;;;;;;4958014;28;20041;-74
2022/05/31 13:33:31;;;;;;;14.15;6.38;;;20.50;54.80;;;;;;4975118;28;20037;-74
2022/05/31 13:36:21;;;;;;;10.45;6.10;;;20.40;54.40;;;;;;4975372;28;20077;-74
2022/05/31 13:38:51;;;;;;;12.73;6.50;;;20.40;53.70;;;;;;4974595;28;20342;-72
2022/05/31 13:41:20;;;;;;;10.13;5.10;;;20.40;54.20;;;;;;4968431;28;20488;-72
2022/05/31 13:43:51;;;;;;;;;;;20.40;50.80;;;;;;4974621;28;20050;-72
2022/05/31 13:46:45;;;;;;;8.20;4.70;;;20.40;53.50;;;;;;4973886;28;19917;-72
2022/05/31 13:49:17;;;;;;;9.65;4.50;;;20.40;50.60;;;;;;4973749;28;20061;-71
2022/05/31 13:51:57;;;;;;;10.43;4.30;;;20.40;48.90;;;;;;4973871;28;20550;-72
2022/05/31 13:54:29;;;;;;;10.68;4.15;;;20.40;50.20;;;;;;4989608;28;20023;-67
2022/05/31 13:57:02;;;;;;;12.35;5.05;;;20.40;50.70;;;;;;4974498;28;20023;-72
2022/05/31 13:59:46;;;;;;;10.65;5.55;;;20.40;52.00;;;;;;4973124;28;20451;-72
2022/05/31 14:02:20;;;;;;;10.57;4.88;;;20.40;49.40;;;;;;4989752;28;20114;-72